Hier das METAR für die 16 wichtigsten Deutschen Flughäfen.
(dauert ein wenig.... ich muss laden.....)

ODER
METAR nach ICAO Code suchen

Berlin - Schönefeld

EDDB

METAR
EDDB 240150Z 20006KT 9999 BKN035 10/07 Q1010 NOSIG
EDDBMETAR lang
Berlin-Schoenefeld, Germany (EDDB) 52-23N 013-31E 50M
Nov 23, 2017 - 08:50 PM EST / 2017.11.24 0150 UTC
Wind: from the SSW (200 degrees) at 7 MPH (6 KT):0
Visibility: greater than 7 mile(s):0
Sky conditions: mostly cloudy
Temperature: 50 F (10 C)
Dew Point: 44 F (7 C)
Relative Humidity: 81%
Pressure (altimeter): 29.83 in. Hg (1010 hPa)
ob: EDDB 240150Z 20006KT 9999 BKN035 10/07 Q1010 NOSIG
cycle: 2

Dresden

EDDC

METAR
EDDC 240150Z 16007KT 140V200 CAVOK 08/05 Q1012
EDDCMETAR lang
Dresden-Klotzsche, Germany (EDDC) 51-08N 013-45E 232M
Nov 23, 2017 - 08:50 PM EST / 2017.11.24 0150 UTC
Wind: from the SSE (160 degrees) at 8 MPH (7 KT) (direction variable):0
Visibility: greater than 7 mile(s):0
Temperature: 46 F (8 C)
Dew Point: 41 F (5 C)
Relative Humidity: 81%
Pressure (altimeter): 29.88 in. Hg (1012 hPa)
ob: EDDC 240150Z 16007KT 140V200 CAVOK 08/05 Q1012
cycle: 2

Erfurt

EDDE

METAR
EDDE 240150Z 19006KT 9999 FEW020 BKN036 11/08 Q1011
EDDEMETAR lang
Erfurt-Bindersleben, Germany (EDDE) 50-59N 010-58E 322M
Nov 23, 2017 - 08:50 PM EST / 2017.11.24 0150 UTC
Wind: from the S (190 degrees) at 7 MPH (6 KT):0
Visibility: greater than 7 mile(s):0
Sky conditions: mostly cloudy
Temperature: 51 F (11 C)
Dew Point: 46 F (8 C)
Relative Humidity: 81%
Pressure (altimeter): 29.85 in. Hg (1011 hPa)
ob: EDDE 240150Z 19006KT 9999 FEW020 BKN036 11/08 Q1011
cycle: 2

Frankfurt a. Main

EDDF

METAR
EDDF 240150Z 20005KT 170V230 9999 FEW037 BKN060 12/08 Q1011 NOSIG
EDDFMETAR lang
Frankfurt / M-Flughafen, Germany (EDDF) 50-03N 008-36E 113M
Nov 23, 2017 - 08:50 PM EST / 2017.11.24 0150 UTC
Wind: from the SSW (200 degrees) at 6 MPH (5 KT) (direction variable):0
Visibility: greater than 7 mile(s):0
Sky conditions: mostly cloudy
Temperature: 53 F (12 C)
Dew Point: 46 F (8 C)
Relative Humidity: 76%
Pressure (altimeter): 29.85 in. Hg (1011 hPa)
ob: EDDF 240150Z 20005KT 170V230 9999 FEW037 BKN060 12/08 Q1011 NOSIG
cycle: 2

Münster Osnabrück

EDDG

METAR
EDDG 240150Z 17005KT CAVOK 08/05 Q1008 NOSIG
EDDGMETAR lang
Muenster / Osnabrueck, Germany (EDDG) 52-08N 007-42E 53M
Nov 23, 2017 - 08:50 PM EST / 2017.11.24 0150 UTC
Wind: from the S (170 degrees) at 6 MPH (5 KT):0
Visibility: greater than 7 mile(s):0
Temperature: 46 F (8 C)
Dew Point: 41 F (5 C)
Relative Humidity: 81%
Pressure (altimeter): 29.77 in. Hg (1008 hPa)
ob: EDDG 240150Z 17005KT CAVOK 08/05 Q1008 NOSIG
cycle: 2

Hamburg

EDDH

METAR
EDDH 240150Z 21008KT 9999 FEW048 BKN260 06/04 Q1007 NOSIG
EDDHMETAR lang
Hamburg-Fuhlsbuettel, Germany (EDDH) 53-38N 010-00E 15M
Nov 23, 2017 - 08:50 PM EST / 2017.11.24 0150 UTC
Wind: from the SSW (210 degrees) at 9 MPH (8 KT):0
Visibility: greater than 7 mile(s):0
Sky conditions: mostly cloudy
Temperature: 42 F (6 C)
Dew Point: 39 F (4 C)
Relative Humidity: 86%
Pressure (altimeter): 29.74 in. Hg (1007 hPa)
ob: EDDH 240150Z 21008KT 9999 FEW048 BKN260 06/04 Q1007 NOSIG
cycle: 2

Köln - Bonn

EDDK

METAR
EDDK 240150Z 12005KT 9999 BKN023 09/08 Q1008 NOSIG
EDDKMETAR lang
Koeln / Bonn, Germany (EDDK) 50-52N 007-10E 100M
Nov 23, 2017 - 08:50 PM EST / 2017.11.24 0150 UTC
Wind: from the ESE (120 degrees) at 6 MPH (5 KT):0
Visibility: greater than 7 mile(s):0
Sky conditions: mostly cloudy
Temperature: 48 F (9 C)
Dew Point: 46 F (8 C)
Relative Humidity: 93%
Pressure (altimeter): 29.77 in. Hg (1008 hPa)
ob: EDDK 240150Z 12005KT 9999 BKN023 09/08 Q1008 NOSIG
cycle: 2

Düsseldorf

EDDL

METAR
EDDL 240150Z 16009KT 9999 BKN034 10/07 Q1008 BECMG RA
EDDLMETAR lang
Duesseldorf, Germany (EDDL) 51-18N 006-46E 41M
Nov 23, 2017 - 08:50 PM EST / 2017.11.24 0150 UTC
Wind: from the SSE (160 degrees) at 10 MPH (9 KT):0
Visibility: greater than 7 mile(s):0
Sky conditions: mostly cloudy
Temperature: 50 F (10 C)
Dew Point: 44 F (7 C)
Relative Humidity: 81%
Pressure (altimeter): 29.77 in. Hg (1008 hPa)
ob: EDDL 240150Z 16009KT 9999 BKN034 10/07 Q1008 BECMG RA
cycle: 2

München

EDDM

METAR
EDDM 240150Z 01001KT CAVOK 02/M00 Q1016 NOSIG
EDDMMETAR lang
Munchen, Germany (EDDM) 48-21N 011-47E
Nov 23, 2017 - 08:50 PM EST / 2017.11.24 0150 UTC
Wind: from the N (010 degrees) at 1 MPH (1 KT):0
Visibility: greater than 7 mile(s):0
Temperature: 35 F (2 C)
Dew Point: 32 F (0 C)
Relative Humidity: 86%
Pressure (altimeter): 30.00 in. Hg (1016 hPa)
ob: EDDM 240150Z 01001KT CAVOK 02/M00 Q1016 NOSIG
cycle: 2

Nürnberg

EDDN

METAR
EDDN 240150Z 12006KT CAVOK 07/03 Q1014
EDDNMETAR lang
Nuernberg, Germany (EDDN) 49-30N 011-03E 318M
Nov 23, 2017 - 08:50 PM EST / 2017.11.24 0150 UTC
Wind: from the ESE (120 degrees) at 7 MPH (6 KT):0
Visibility: greater than 7 mile(s):0
Temperature: 44 F (7 C)
Dew Point: 37 F (3 C)
Relative Humidity: 75%
Pressure (altimeter): 29.94 in. Hg (1014 hPa)
ob: EDDN 240150Z 12006KT CAVOK 07/03 Q1014
cycle: 2

Leipzig - Halle

EDDP

METAR
EDDP 240150Z 18008KT CAVOK 10/07 Q1011 NOSIG
EDDPMETAR lang
Leipzig-Schkeuditz, Germany (EDDP) 51-25N 012-14E 149M
Nov 23, 2017 - 08:50 PM EST / 2017.11.24 0150 UTC
Wind: from the S (180 degrees) at 9 MPH (8 KT):0
Visibility: greater than 7 mile(s):0
Temperature: 50 F (10 C)
Dew Point: 44 F (7 C)
Relative Humidity: 81%
Pressure (altimeter): 29.85 in. Hg (1011 hPa)
ob: EDDP 240150Z 18008KT CAVOK 10/07 Q1011 NOSIG
cycle: 2

Saarbrücken

EDDR

METAR
EDDR 240150Z AUTO 21011KT 9999 // FEW034/// SCT050/// 11/07 Q1012
EDDRMETAR lang
Saarbruecken / Ensheim, Germany (EDDR) 49-13N 007-07E 320M
Nov 23, 2017 - 08:50 PM EST / 2017.11.24 0150 UTC
Wind: from the SSW (210 degrees) at 13 MPH (11 KT):0
Visibility: greater than 7 mile(s):0
Sky conditions: partly cloudy
Temperature: 51 F (11 C)
Dew Point: 44 F (7 C)
Relative Humidity: 76%
Pressure (altimeter): 29.88 in. Hg (1012 hPa)
ob: EDDR 240150Z AUTO 21011KT 9999 // FEW034/// SCT050/// 11/07 Q1012
cycle: 2

Stuttgart

EDDS

METAR
EDDS 240150Z 26003KT 120V290 CAVOK 09/04 Q1014
EDDSMETAR lang
Stuttgart-Echterdingen, Germany (EDDS) 48-41N 009-13E 391M
Nov 23, 2017 - 08:50 PM EST / 2017.11.24 0150 UTC
Wind: from the W (260 degrees) at 3 MPH (3 KT) (direction variable):0
Visibility: greater than 7 mile(s):0
Temperature: 48 F (9 C)
Dew Point: 39 F (4 C)
Relative Humidity: 70%
Pressure (altimeter): 29.94 in. Hg (1014 hPa)
ob: EDDS 240150Z 26003KT 120V290 CAVOK 09/04 Q1014
cycle: 2

Berlin - Tegel

EDDT

METAR
EDDT 240150Z 24005KT 9999 BKN038 11/07 Q1010
EDDTMETAR lang
Berlin-Tegel, Germany (EDDT) 52-34N 013-19E 37M
Nov 23, 2017 - 08:50 PM EST / 2017.11.24 0150 UTC
Wind: from the WSW (240 degrees) at 6 MPH (5 KT):0
Visibility: greater than 7 mile(s):0
Sky conditions: mostly cloudy
Temperature: 51 F (11 C)
Dew Point: 44 F (7 C)
Relative Humidity: 76%
Pressure (altimeter): 29.83 in. Hg (1010 hPa)
ob: EDDT 240150Z 24005KT 9999 BKN038 11/07 Q1010
cycle: 2

Hannover

EDDV

METAR
EDDV 240150Z 16007KT CAVOK 07/04 Q1009
EDDVMETAR lang
Hannover, Germany (EDDV) 52-28N 009-41E 59M
Nov 23, 2017 - 08:50 PM EST / 2017.11.24 0150 UTC
Wind: from the SSE (160 degrees) at 8 MPH (7 KT):0
Visibility: greater than 7 mile(s):0
Temperature: 44 F (7 C)
Dew Point: 39 F (4 C)
Relative Humidity: 81%
Pressure (altimeter): 29.80 in. Hg (1009 hPa)
ob: EDDV 240150Z 16007KT CAVOK 07/04 Q1009
cycle: 2

Bremen

EDDW

METAR
EDDW 240150Z 19005KT CAVOK 07/05 Q1007
EDDWMETAR lang
Bremen, Germany (EDDW) 53-03N 008-48E 5M
Nov 23, 2017 - 08:50 PM EST / 2017.11.24 0150 UTC
Wind: from the S (190 degrees) at 6 MPH (5 KT):0
Visibility: greater than 7 mile(s):0
Temperature: 44 F (7 C)
Dew Point: 41 F (5 C)
Relative Humidity: 87%
Pressure (altimeter): 29.74 in. Hg (1007 hPa)
ob: EDDW 240150Z 19005KT CAVOK 07/05 Q1007
cycle: 2